Bethel Airport
PABE : now visible

Airfield :











YOU CAN JOIN US ON...

 
LOGIN :

Register | Disclaimer

   EN    FR    IT 

 









Legend :    VFR   Marginal VFR   IFR   Intensive IFR   Very Intensive IFR
Visi :
Ceiling :
>= 8 km
>= 3000ft
5 to 8 km
1000 to 3000 ft
1500m to 5 km
500 to 1000 ft
800 to 1500m
200 to 500 ft
< 800m
< 200 ft
Symbols :   Thunderstorms  Fog  Heavy snow  Heavy precipitations  Wind > 20 kt






- Airport Elevation : 126 ft
- IATA code : BET


PABE - Bethel

CURRENT METAR :
  • 222053Z 01017KT 10SM OVC015 06/02 A2966 RMK AO2 SLP044 T00560022 51002

EXPIRED METARs :
  • 221953Z 36019G24KT 10SM OVC015 06/03 A2965 RMK AO2 SLP043 T00560028
  • 221942Z 01019G25KT 10SM BKN015 06/03 A2965 RMK AO2 T00560028
  • 221853Z 36015G25KT 10SM FEW013 05/03 A2965 RMK AO2 SLP043 T00500033

TAF PABE
Valid from the 22 at 18:00 until the 23 at 18:00 UTC


221722Z 2218/2318 01015KT P6SM SKC
FM222000 36020G26KT P6SM SKC
PAZA FIR / North America



MET'MAP, your aeronautical weather chart ! - Copyright ORBIFLY December 2007 - Disclaimer

ORBIFLY MET'MAP TEAM :

Programming & Development : Alexandra Zaïnal
Concept & original design : Baudouin d'Aumeries
Assistance for programming : Marc-Olivier Méhu
Technical & hardware support : Manuel Goepfert

Contact : metmap@orbifly.com




SOURCES & CREDITS :

   NOAA       Earth
Advisory